createdAt,value
2022-09-27T00:01:39.457Z,7.70
2022-09-27T00:04:06.313Z,7.70
2022-09-27T00:06:34.911Z,7.70
2022-09-27T00:09:03.716Z,7.70
2022-09-27T00:11:36.127Z,7.70
2022-09-27T00:14:04.188Z,7.70
2022-09-27T00:16:34.158Z,7.70
2022-09-27T00:19:10.919Z,7.70
2022-09-27T00:21:37.731Z,7.70
2022-09-27T00:24:04.724Z,7.70
2022-09-27T00:26:31.723Z,7.70
2022-09-27T00:28:58.730Z,7.70
2022-09-27T00:31:29.586Z,7.70
2022-09-27T00:34:01.872Z,7.70
2022-09-27T00:36:29.867Z,7.70
2022-09-27T00:38:57.445Z,7.70
2022-09-27T00:41:27.077Z,7.70
2022-09-27T00:43:57.148Z,7.70
2022-09-27T00:46:49.390Z,7.70
2022-09-27T00:49:23.833Z,7.70
2022-09-27T00:51:55.626Z,7.70
2022-09-27T00:54:26.440Z,7.70
2022-09-27T00:56:55.483Z,7.70
2022-09-27T00:59:30.613Z,7.70
2022-09-27T01:01:57.692Z,7.70
2022-09-27T01:04:30.799Z,7.70
2022-09-27T01:06:57.643Z,7.70
2022-09-27T01:09:25.285Z,7.70
2022-09-27T01:12:13.612Z,7.70
2022-09-27T01:15:00.667Z,7.70
2022-09-27T01:17:33.705Z,7.70
2022-09-27T01:20:31.185Z,7.70
2022-09-27T01:23:33.154Z,7.80
2022-09-27T01:26:09.556Z,7.80
2022-09-27T01:29:12.910Z,7.80
2022-09-27T01:31:56.567Z,7.80
2022-09-27T01:34:58.732Z,7.80
2022-09-27T01:37:43.584Z,7.80
2022-09-27T01:40:16.378Z,7.80
2022-09-27T01:43:21.407Z,7.80
2022-09-27T01:45:56.688Z,7.80
2022-09-27T01:48:47.381Z,7.80
2022-09-27T01:51:27.839Z,7.80
2022-09-27T01:54:01.025Z,7.80
2022-09-27T01:56:52.603Z,7.80
2022-09-27T01:59:35.590Z,7.90
2022-09-27T02:02:20.231Z,7.90
2022-09-27T02:05:10.696Z,7.90
2022-09-27T02:07:47.437Z,7.90
2022-09-27T02:10:27.999Z,7.90
2022-09-27T02:13:04.948Z,7.90
2022-09-27T02:15:57.495Z,7.80
2022-09-27T02:18:59.806Z,7.80
2022-09-27T02:21:37.100Z,7.90
2022-09-27T02:24:06.944Z,7.80
2022-09-27T02:26:38.641Z,7.80
2022-09-27T02:29:19.265Z,7.70
2022-09-27T02:31:51.095Z,7.70
2022-09-27T02:34:29.086Z,7.70
2022-09-27T02:36:56.253Z,7.70
2022-09-27T02:39:24.011Z,7.70
2022-09-27T02:42:00.218Z,7.60
2022-09-27T02:44:28.644Z,7.60
2022-09-27T02:47:17.443Z,7.50
2022-09-27T02:49:58.294Z,7.40
2022-09-27T02:53:14.676Z,7.40
2022-09-27T02:56:18.619Z,7.40
2022-09-27T02:59:15.772Z,7.30
2022-09-27T03:02:14.144Z,7.20
2022-09-27T03:05:34.082Z,7.20
2022-09-27T03:08:01.917Z,7.10
2022-09-27T03:10:29.780Z,7.00
2022-09-27T03:12:58.761Z,6.90
2022-09-27T03:15:25.709Z,6.90
2022-09-27T03:18:02.155Z,6.90
2022-09-27T03:20:47.280Z,7.00
2022-09-27T03:23:16.835Z,7.00
2022-09-27T03:25:43.630Z,7.00
2022-09-27T03:28:13.291Z,7.00
2022-09-27T03:30:42.668Z,7.00
2022-09-27T03:33:10.919Z,7.00
2022-09-27T03:35:44.406Z,7.00
2022-09-27T03:38:11.580Z,6.90
2022-09-27T03:40:39.302Z,6.90
2022-09-27T03:43:07.625Z,6.80
2022-09-27T03:45:34.515Z,6.70
2022-09-27T03:48:05.677Z,6.60
2022-09-27T03:50:32.596Z,6.60
2022-09-27T03:52:59.418Z,6.60
2022-09-27T03:55:26.452Z,6.60
2022-09-27T03:57:53.549Z,6.60
2022-09-27T04:00:21.692Z,6.60
2022-09-27T04:02:48.803Z,6.60
2022-09-27T04:05:21.297Z,6.70
2022-09-27T04:07:49.591Z,6.70
2022-09-27T04:10:18.214Z,6.80
2022-09-27T04:12:45.327Z,6.90
2022-09-27T04:15:12.389Z,6.90
2022-09-27T04:17:51.706Z,6.90
2022-09-27T04:20:34.076Z,6.80
2022-09-27T04:23:05.061Z,6.90
2022-09-27T04:25:34.619Z,6.90
2022-09-27T04:28:09.265Z,6.90
2022-09-27T04:30:36.271Z,6.90
2022-09-27T04:33:28.832Z,6.90
2022-09-27T04:36:25.119Z,6.80
2022-09-27T04:39:04.678Z,6.90
2022-09-27T04:41:32.600Z,6.90
2022-09-27T04:44:02.456Z,6.50
2022-09-27T04:46:34.173Z,6.30
2022-09-27T04:49:02.111Z,6.10
2022-09-27T04:51:30.439Z,6.00
2022-09-27T04:53:58.386Z,6.00
2022-09-27T04:56:31.953Z,6.00
2022-09-27T04:59:01.327Z,6.00
2022-09-27T05:01:30.340Z,6.00
2022-09-27T05:04:00.067Z,6.00
2022-09-27T05:06:28.545Z,6.00
2022-09-27T05:08:59.202Z,6.00
2022-09-27T05:11:28.272Z,6.00
2022-09-27T05:14:14.291Z,6.10
2022-09-27T05:16:50.916Z,6.30
2022-09-27T05:19:44.047Z,6.40
2022-09-27T05:22:21.318Z,6.40
2022-09-27T05:24:48.264Z,6.50
2022-09-27T05:27:18.639Z,6.40
2022-09-27T05:29:46.246Z,6.40
2022-09-27T05:32:25.870Z,6.50
2022-09-27T05:35:08.378Z,6.50
2022-09-27T05:37:35.138Z,6.50
2022-09-27T05:40:16.932Z,6.50
2022-09-27T05:42:50.473Z,6.50
2022-09-27T05:45:18.039Z,6.60
2022-09-27T05:47:52.105Z,6.60
2022-09-27T05:50:19.121Z,6.60
2022-09-27T05:52:45.882Z,6.60
2022-09-27T05:55:13.865Z,6.60
2022-09-27T05:57:40.922Z,6.60
2022-09-27T06:00:10.262Z,6.60
2022-09-27T06:02:40.385Z,6.60
2022-09-27T06:05:07.815Z,6.70
2022-09-27T06:08:09.672Z,6.70
2022-09-27T06:10:42.311Z,6.90
2022-09-27T06:13:15.283Z,7.00
2022-09-27T06:15:44.772Z,7.00
2022-09-27T06:18:17.967Z,7.00
2022-09-27T06:20:47.232Z,7.00
2022-09-27T06:23:19.605Z,6.90
2022-09-27T06:25:49.350Z,6.90
2022-09-27T06:31:23.742Z,6.90
2022-09-27T06:33:58.961Z,6.90
2022-09-27T06:36:25.834Z,6.80
2022-09-27T06:38:52.633Z,6.90
2022-09-27T06:41:29.477Z,6.80
2022-09-27T06:44:14.951Z,6.80
2022-09-27T06:47:00.332Z,7.00
2022-09-27T06:49:46.225Z,7.20
2022-09-27T06:52:15.798Z,7.30
2022-09-27T06:54:42.877Z,7.40
2022-09-27T06:57:09.658Z,7.40
2022-09-27T06:59:55.444Z,7.50
2022-09-27T07:02:40.891Z,7.70
2022-09-27T07:05:28.500Z,7.90
2022-09-27T07:08:19.528Z,8.00
2022-09-27T07:10:46.474Z,8.30
2022-09-27T07:13:13.270Z,8.30
2022-09-27T07:15:41.917Z,8.30
2022-09-27T07:18:12.990Z,8.10
2022-09-27T07:20:39.989Z,8.10
2022-09-27T07:23:08.098Z,8.10
2022-09-27T07:25:36.029Z,8.20
2022-09-27T07:28:04.990Z,8.00
2022-09-27T07:30:32.675Z,8.00
2022-09-27T07:33:01.085Z,8.00
2022-09-27T07:35:28.826Z,8.00
2022-09-27T07:37:56.952Z,8.00
2022-09-27T07:40:25.167Z,7.90
2022-09-27T07:42:59.294Z,8.00
2022-09-27T07:45:26.757Z,9.20
2022-09-27T07:48:28.640Z,10.90
2022-09-27T07:51:14.027Z,12.50
2022-09-27T07:53:47.951Z,12.30
2022-09-27T07:56:37.797Z,12.40
2022-09-27T07:59:06.791Z,12.30
2022-09-27T08:01:34.721Z,12.10
2022-09-27T08:04:01.913Z,12.60
2022-09-27T08:06:29.922Z,12.40
2022-09-27T08:08:58.695Z,12.40
2022-09-27T08:11:27.210Z,12.50
2022-09-27T08:13:55.680Z,12.90
2022-09-27T08:16:25.183Z,13.40
2022-09-27T08:19:11.331Z,13.60
2022-09-27T08:22:14.041Z,12.40
2022-09-27T08:25:03.545Z,11.90
2022-09-27T08:27:39.059Z,11.80
2022-09-27T08:30:21.718Z,11.10
2022-09-27T08:32:48.523Z,10.60
2022-09-27T08:35:15.664Z,10.20
2022-09-27T08:37:42.467Z,9.80
2022-09-27T08:40:17.795Z,9.70
2022-09-27T08:43:06.196Z,9.50
2022-09-27T08:45:47.706Z,9.50
2022-09-27T08:48:17.129Z,9.50
2022-09-27T08:50:46.754Z,9.30
2022-09-27T08:53:14.731Z,9.10
2022-09-27T08:55:50.790Z,8.90
2022-09-27T08:58:30.087Z,8.80
2022-09-27T09:01:01.161Z,8.80
2022-09-27T09:03:38.593Z,8.80
2022-09-27T09:06:19.068Z,8.80
2022-09-27T09:09:08.032Z,8.70
2022-09-27T09:11:56.358Z,8.90
2022-09-27T09:14:48.522Z,9.00
2022-09-27T09:17:20.453Z,8.90
2022-09-27T09:20:03.667Z,8.90
2022-09-27T09:22:42.348Z,8.90
2022-09-27T09:25:40.208Z,9.00
2022-09-27T09:28:34.615Z,9.10
2022-09-27T09:31:22.096Z,9.20
2022-09-27T09:34:00.591Z,9.30
2022-09-27T09:36:37.432Z,9.30
2022-09-27T09:39:28.242Z,9.30
2022-09-27T09:42:28.162Z,9.30
2022-09-27T09:45:33.047Z,9.20
2022-09-27T09:48:15.350Z,9.00
2022-09-27T09:50:49.494Z,8.90
2022-09-27T09:53:40.154Z,9.10
2022-09-27T09:56:19.482Z,9.40
2022-09-27T09:58:59.266Z,9.70
2022-09-27T10:01:46.962Z,10.10
2022-09-27T10:04:28.038Z,10.60
2022-09-27T10:07:00.494Z,11.00
2022-09-27T10:09:31.529Z,10.90
2022-09-27T10:12:37.853Z,10.80
2022-09-27T10:15:06.567Z,10.40
2022-09-27T10:17:40.050Z,10.20
2022-09-27T10:20:42.299Z,10.30
2022-09-27T10:23:15.873Z,10.50
2022-09-27T10:26:10.338Z,11.10
2022-09-27T10:28:46.045Z,11.40
2022-09-27T10:31:18.065Z,11.90
2022-09-27T10:33:56.213Z,12.60
2022-09-27T10:36:31.816Z,12.80
2022-09-27T10:39:01.996Z,12.40
2022-09-27T10:41:41.558Z,11.80
2022-09-27T10:44:29.391Z,11.90
2022-09-27T10:47:16.492Z,11.80
2022-09-27T10:49:53.791Z,12.20
2022-09-27T10:52:35.923Z,12.20
2022-09-27T10:55:18.814Z,12.20
2022-09-27T10:57:52.002Z,12.40
2022-09-27T11:00:32.468Z,12.50
2022-09-27T11:03:03.393Z,12.50
2022-09-27T11:05:39.590Z,12.40
2022-09-27T11:08:18.933Z,12.20
2022-09-27T11:11:22.272Z,11.80
2022-09-27T11:13:58.347Z,11.50
2022-09-27T11:16:29.926Z,11.30
2022-09-27T11:19:00.435Z,11.30
2022-09-27T11:22:03.797Z,11.10
2022-09-27T11:24:54.735Z,11.00
2022-09-27T11:27:42.661Z,10.80
2022-09-27T11:30:41.921Z,10.50
2022-09-27T11:33:58.998Z,10.40
2022-09-27T11:37:04.539Z,10.50
2022-09-27T11:39:54.751Z,10.70
2022-09-27T11:42:52.039Z,10.80
2022-09-27T11:46:03.377Z,10.80
2022-09-27T11:48:46.698Z,10.50
2022-09-27T11:51:20.037Z,10.50
2022-09-27T11:53:56.648Z,10.60
2022-09-27T11:56:38.091Z,11.00
2022-09-27T11:59:26.075Z,10.80
2022-09-27T12:02:30.150Z,10.70
2022-09-27T12:05:04.771Z,10.50
2022-09-27T12:07:57.865Z,10.10
2022-09-27T12:10:25.234Z,9.90
2022-09-27T12:12:55.736Z,9.60
2022-09-27T12:15:24.647Z,9.50
2022-09-27T12:17:56.672Z,9.40
2022-09-27T12:20:31.202Z,9.20
2022-09-27T12:23:05.488Z,9.20
2022-09-27T12:26:03.443Z,9.10
2022-09-27T12:29:09.533Z,9.00
2022-09-27T12:32:04.093Z,8.70
2022-09-27T12:34:42.894Z,8.50
2022-09-27T12:37:14.989Z,8.30
2022-09-27T12:39:55.648Z,8.10
2022-09-27T12:42:35.909Z,7.90
2022-09-27T12:45:14.965Z,7.80
2022-09-27T12:47:42.226Z,7.80
2022-09-27T12:50:26.275Z,7.80
2022-09-27T12:52:56.267Z,7.80
2022-09-27T12:55:31.024Z,8.00
2022-09-27T12:58:29.696Z,8.30
2022-09-27T13:01:38.891Z,8.80
2022-09-27T13:04:35.038Z,9.20
2022-09-27T13:07:21.240Z,9.80
2022-09-27T13:10:05.864Z,9.70
2022-09-27T13:12:34.837Z,9.60
2022-09-27T13:15:01.695Z,9.50
2022-09-27T13:17:40.347Z,9.30
2022-09-27T13:20:36.821Z,9.20
2022-09-27T13:23:19.336Z,9.00
2022-09-27T13:25:59.665Z,8.70
2022-09-27T13:28:31.874Z,8.50
2022-09-27T13:31:12.950Z,8.50
2022-09-27T13:33:48.944Z,8.50
2022-09-27T13:36:28.233Z,8.40
2022-09-27T13:39:05.819Z,8.30
2022-09-27T13:41:54.466Z,8.20
2022-09-27T13:44:50.988Z,8.00
2022-09-27T13:47:21.782Z,7.90
2022-09-27T13:49:52.210Z,7.90
2022-09-27T13:52:33.650Z,7.90
2022-09-27T13:55:43.317Z,8.10
2022-09-27T13:58:41.941Z,8.30
2022-09-27T14:01:42.091Z,8.30
2022-09-27T14:04:22.182Z,8.50
2022-09-27T14:06:53.393Z,8.90
2022-09-27T14:09:39.930Z,9.00
2022-09-27T14:12:19.911Z,9.00
2022-09-27T14:14:49.499Z,9.00
2022-09-27T14:17:17.274Z,9.10
2022-09-27T14:19:45.873Z,9.10
2022-09-27T14:22:16.799Z,8.90
2022-09-27T14:24:58.049Z,8.90
2022-09-27T14:27:35.532Z,8.70
2022-09-27T14:30:25.394Z,8.60
2022-09-27T14:33:01.649Z,8.20
2022-09-27T14:36:07.402Z,7.80
2022-09-27T14:38:38.412Z,7.70
2022-09-27T14:41:16.132Z,7.70
2022-09-27T14:43:50.553Z,7.80
2022-09-27T14:46:27.499Z,7.80
2022-09-27T14:48:55.858Z,8.10
2022-09-27T14:51:32.866Z,8.40
2022-09-27T14:54:04.047Z,8.90
2022-09-27T14:56:37.779Z,9.10
2022-09-27T14:59:11.358Z,8.90
2022-09-27T15:01:40.037Z,8.90
2022-09-27T15:04:13.896Z,8.90
2022-09-27T15:06:41.023Z,8.90
2022-09-27T15:09:10.253Z,9.00
2022-09-27T15:11:39.442Z,8.90
2022-09-27T15:14:07.263Z,8.70
2022-09-27T15:16:34.596Z,8.70
2022-09-27T15:19:07.227Z,8.70
2022-09-27T15:21:36.897Z,8.70
2022-09-27T15:24:04.303Z,8.70
2022-09-27T15:26:47.538Z,8.70
2022-09-27T15:29:23.599Z,8.80
2022-09-27T15:32:08.084Z,8.70
2022-09-27T15:34:37.283Z,8.70
2022-09-27T15:37:06.174Z,8.60
2022-09-27T15:39:35.706Z,8.50
2022-09-27T15:42:19.646Z,8.40
2022-09-27T15:44:50.777Z,8.40
2022-09-27T15:47:32.576Z,8.50
2022-09-27T15:50:14.897Z,8.50
2022-09-27T15:52:45.204Z,8.40
2022-09-27T15:55:12.561Z,8.40
2022-09-27T15:57:40.458Z,8.30
2022-09-27T16:00:12.544Z,8.30
2022-09-27T16:02:39.284Z,8.30
2022-09-27T16:05:06.512Z,8.50
2022-09-27T16:07:33.238Z,8.80
2022-09-27T16:10:00.644Z,8.90
2022-09-27T16:12:30.219Z,8.90
2022-09-27T16:14:57.084Z,8.80
2022-09-27T16:17:23.942Z,8.70
2022-09-27T16:19:50.705Z,8.60
2022-09-27T16:22:17.425Z,8.40
2022-09-27T16:24:44.405Z,8.30
2022-09-27T16:27:11.147Z,8.30
2022-09-27T16:29:41.201Z,8.20
2022-09-27T16:32:11.080Z,8.20
2022-09-27T16:34:38.239Z,8.20
2022-09-27T16:37:05.790Z,8.10
2022-09-27T16:39:32.657Z,8.10
2022-09-27T16:41:59.922Z,8.00
2022-09-27T16:44:27.735Z,8.10
2022-09-27T16:46:54.684Z,8.00
2022-09-27T16:49:44.758Z,8.00
2022-09-27T16:52:11.557Z,7.90
2022-09-27T16:54:38.332Z,7.90
2022-09-27T16:57:05.244Z,7.80
2022-09-27T16:59:32.479Z,7.80
2022-09-27T17:01:59.424Z,7.80
2022-09-27T17:04:27.760Z,7.70
2022-09-27T17:06:58.207Z,7.80
2022-09-27T17:09:25.301Z,7.80
2022-09-27T17:11:52.082Z,7.70
2022-09-27T17:14:18.981Z,7.70
2022-09-27T17:16:47.174Z,7.70
2022-09-27T17:19:15.085Z,7.60
2022-09-27T17:21:43.503Z,7.60
2022-09-27T17:24:10.695Z,7.60
2022-09-27T17:26:38.031Z,7.60
2022-09-27T17:29:04.915Z,7.50
2022-09-27T17:31:34.617Z,7.50
2022-09-27T17:34:01.972Z,7.50
2022-09-27T17:36:33.894Z,7.50
2022-09-27T17:39:01.553Z,7.40
2022-09-27T17:41:29.453Z,7.40
2022-09-27T17:43:58.886Z,7.40
2022-09-27T17:46:29.268Z,7.40
2022-09-27T17:49:15.367Z,7.40
2022-09-27T17:51:45.441Z,7.30
2022-09-27T17:54:12.529Z,7.30
2022-09-27T17:56:41.349Z,7.20
2022-09-27T17:59:10.114Z,7.20
2022-09-27T18:01:38.768Z,7.10
2022-09-27T18:04:11.070Z,7.10
2022-09-27T18:06:43.997Z,7.00
2022-09-27T18:09:12.622Z,7.00
2022-09-27T18:11:40.106Z,6.90
2022-09-27T18:14:07.473Z,6.90
2022-09-27T18:16:39.090Z,6.90
2022-09-27T18:19:07.902Z,6.90
2022-09-27T18:21:35.333Z,6.90
2022-09-27T18:24:06.404Z,6.90
2022-09-27T18:26:39.162Z,7.00
2022-09-27T18:29:12.271Z,7.00
2022-09-27T18:31:47.502Z,7.00
2022-09-27T18:34:16.848Z,6.90
2022-09-27T18:36:44.551Z,7.00
2022-09-27T18:39:17.828Z,7.00
2022-09-27T18:41:45.746Z,7.00
2022-09-27T18:44:14.358Z,7.00
2022-09-27T18:46:41.591Z,7.00
2022-09-27T18:49:11.585Z,6.90
2022-09-27T18:51:43.444Z,6.90
2022-09-27T18:54:21.991Z,6.90
2022-09-27T18:56:50.778Z,6.90
2022-09-27T18:59:20.728Z,6.90
2022-09-27T19:01:47.744Z,6.90
2022-09-27T19:04:21.530Z,6.90
2022-09-27T19:06:56.173Z,6.90
2022-09-27T19:09:24.533Z,6.90
2022-09-27T19:11:51.291Z,6.90
2022-09-27T19:14:20.622Z,6.90
2022-09-27T19:16:48.578Z,6.90
2022-09-27T19:19:16.969Z,6.90
2022-09-27T19:21:44.419Z,6.90
2022-09-27T19:24:11.872Z,6.90
2022-09-27T19:26:38.743Z,6.90
2022-09-27T19:29:06.513Z,6.90
2022-09-27T19:31:33.906Z,6.90
2022-09-27T19:34:00.954Z,6.90
2022-09-27T19:36:28.285Z,6.90
2022-09-27T19:38:58.351Z,6.90
2022-09-27T19:41:25.723Z,6.90
2022-09-27T19:43:53.016Z,6.90
2022-09-27T19:46:21.203Z,6.90
2022-09-27T19:48:49.646Z,6.90
2022-09-27T19:51:19.257Z,6.90
2022-09-27T19:53:46.473Z,7.00
2022-09-27T19:56:14.559Z,7.00
2022-09-27T19:58:42.514Z,7.00
2022-09-27T20:01:11.978Z,7.00
2022-09-27T20:03:41.443Z,7.00
2022-09-27T20:06:11.152Z,7.00
2022-09-27T20:08:38.075Z,7.00
2022-09-27T20:11:07.954Z,7.00
2022-09-27T20:13:36.399Z,7.10
2022-09-27T20:16:05.226Z,7.10
2022-09-27T20:18:32.723Z,7.10
2022-09-27T20:21:03.735Z,7.10
2022-09-27T20:23:32.465Z,7.10
2022-09-27T20:26:02.713Z,7.10
2022-09-27T20:28:29.971Z,7.20
2022-09-27T20:31:05.875Z,7.20
2022-09-27T20:33:41.585Z,7.20
2022-09-27T20:36:16.335Z,7.20
2022-09-27T20:38:45.164Z,7.20
2022-09-27T20:41:14.172Z,7.20
2022-09-27T20:43:40.930Z,7.20
2022-09-27T20:46:11.160Z,7.10
2022-09-27T20:48:41.183Z,7.20
2022-09-27T20:51:08.420Z,7.10
2022-09-27T20:53:35.758Z,7.10
2022-09-27T20:56:03.161Z,7.10
2022-09-27T20:58:32.003Z,7.10
2022-09-27T21:01:05.769Z,7.10
2022-09-27T21:03:33.030Z,7.00
2022-09-27T21:05:59.964Z,7.00
2022-09-27T21:08:30.534Z,7.00
2022-09-27T21:11:04.659Z,7.00
2022-09-27T21:13:31.634Z,7.00
2022-09-27T21:16:03.411Z,7.00
2022-09-27T21:18:30.236Z,6.90
2022-09-27T21:21:03.019Z,7.00
2022-09-27T21:23:30.993Z,7.00
2022-09-27T21:26:11.720Z,7.00
2022-09-27T21:28:42.401Z,6.90
2022-09-27T21:31:11.548Z,6.90
2022-09-27T21:33:39.162Z,6.90
2022-09-27T21:36:08.577Z,6.90
2022-09-27T21:38:35.450Z,6.90
2022-09-27T21:41:04.975Z,6.90
2022-09-27T21:43:34.701Z,6.90
2022-09-27T21:46:03.369Z,6.90
2022-09-27T21:48:30.796Z,6.90
2022-09-27T21:51:12.166Z,6.90
2022-09-27T21:53:41.666Z,6.90
2022-09-27T21:56:09.537Z,7.00
2022-09-27T21:58:39.134Z,7.00
2022-09-27T22:01:21.831Z,6.90
2022-09-27T22:03:50.063Z,6.90
2022-09-27T22:06:19.378Z,6.90
2022-09-27T22:08:47.791Z,7.00
2022-09-27T22:11:17.218Z,7.00
2022-09-27T22:13:44.138Z,7.00
2022-09-27T22:16:14.699Z,7.00
2022-09-27T22:18:46.537Z,7.00
2022-09-27T22:21:17.166Z,7.00
2022-09-27T22:23:47.247Z,7.00
2022-09-27T22:26:21.492Z,7.00
2022-09-27T22:28:48.631Z,7.00
2022-09-27T22:31:18.585Z,7.00
2022-09-27T22:33:54.453Z,7.00
2022-09-27T22:36:21.704Z,7.00
2022-09-27T22:38:52.548Z,7.00
2022-09-27T22:41:20.255Z,7.10
2022-09-27T22:43:47.515Z,7.00
2022-09-27T22:46:14.878Z,7.10
2022-09-27T22:48:42.490Z,7.10
2022-09-27T22:51:09.896Z,7.10
2022-09-27T22:53:37.748Z,7.10
2022-09-27T22:56:08.403Z,7.10
2022-09-27T22:58:36.710Z,7.10
2022-09-27T23:01:20.179Z,7.10
2022-09-27T23:03:49.236Z,7.10
2022-09-27T23:06:18.265Z,7.10
2022-09-27T23:08:45.088Z,7.10
2022-09-27T23:11:14.154Z,7.00
2022-09-27T23:13:42.746Z,7.00
2022-09-27T23:16:13.129Z,7.00
2022-09-27T23:18:40.626Z,7.00
2022-09-27T23:21:09.836Z,7.00
2022-09-27T23:23:41.566Z,7.00
2022-09-27T23:26:11.859Z,7.00
2022-09-27T23:28:38.920Z,7.00
2022-09-27T23:31:08.628Z,7.00
2022-09-27T23:33:40.410Z,7.00
2022-09-27T23:36:12.357Z,7.10
2022-09-27T23:38:40.996Z,7.10
2022-09-27T23:41:08.420Z,7.10
2022-09-27T23:43:35.469Z,7.10
2022-09-27T23:46:05.709Z,7.10
2022-09-27T23:48:34.635Z,7.10
2022-09-27T23:51:02.713Z,7.10
2022-09-27T23:53:29.877Z,7.10
2022-09-27T23:56:05.488Z,7.10
2022-09-27T23:58:33.910Z,7.20
